Time;durP1;ratioP1;P1;durP2;ratioP2;P2;SDS_P1;SDS_P2;PMS_P1;PMS_P2;Temp;Humidity;BMP_temperature;BMP_pressure;BME280_temperature;BME280_humidity;BME280_pressure;Samples;Min_cycle;Max_cycle;Signal;HPM_P1;HPM_P2
2023/06/15 00:00:57;;;;;;;7.70;7.00;;;;;;;12.43;100.00;96357.75;7400012;19;20405;-76
2023/06/15 00:03:25;;;;;;;7.63;6.93;;;;;;;11.89;100.00;96344.09;7402068;19;20349;-75
2023/06/15 00:05:53;;;;;;;9.43;7.60;;;;;;;11.58;100.00;96327.97;7396604;19;20374;-75
2023/06/15 00:08:20;;;;;;;10.80;7.10;;;;;;;11.34;100.00;96336.66;7397962;19;20897;-75
2023/06/15 00:10:47;;;;;;;7.30;6.70;;;;;;;10.81;100.00;96349.69;7398221;19;20424;-75
2023/06/15 00:13:15;;;;;;;7.40;6.70;;;;;;;10.99;100.00;96325.72;7398071;19;20960;-75
2023/06/15 00:15:42;;;;;;;6.77;6.20;;;;;;;11.42;100.00;96320.69;7397056;19;20372;-75
2023/06/15 00:18:09;;;;;;;7.40;6.67;;;;;;;11.69;100.00;96345.72;7400784;19;20384;-75
2023/06/15 00:20:37;;;;;;;7.80;7.03;;;;;;;11.20;100.00;96321.88;7400315;19;20720;-75
2023/06/15 00:23:05;;;;;;;6.93;6.30;;;;;;;11.13;100.00;96347.34;7420166;19;20385;-75
2023/06/15 00:25:33;;;;;;;7.70;7.10;;;;;;;11.41;100.00;96352.78;7425243;19;20476;-76
2023/06/15 00:28:01;;;;;;;7.50;6.80;;;;;;;11.69;100.00;96355.53;7424684;19;20445;-75
2023/06/15 00:30:28;;;;;;;6.80;6.20;;;;;;;11.58;100.00;96320.78;7397452;19;20381;-75
2023/06/15 00:32:55;;;;;;;9.07;8.13;;;;;;;11.62;100.00;96348.16;7397580;19;20332;-75
2023/06/15 00:35:22;;;;;;;8.23;7.43;;;;;;;11.12;100.00;96292.91;7400072;19;20404;-75
2023/06/15 00:37:49;;;;;;;7.67;6.87;;;;;;;11.25;100.00;96334.91;7400572;19;20368;-76
2023/06/15 00:40:17;;;;;;;8.30;7.43;;;;;;;10.95;100.00;96331.69;7396843;19;20441;-76
2023/06/15 00:42:45;;;;;;;8.40;6.53;;;;;;;10.63;100.00;96325.31;7399346;19;20399;-76
2023/06/15 00:45:12;;;;;;;9.60;8.07;;;;;;;10.97;100.00;96341.16;7394426;19;20432;-75
2023/06/15 00:47:41;;;;;;;7.73;7.13;;;;;;;11.08;100.00;96334.31;7394659;19;20383;-76
2023/06/15 00:50:10;;;;;;;8.83;6.70;;;;;;;11.14;100.00;96343.59;7395656;19;20376;-76
2023/06/15 00:52:38;;;;;;;7.47;6.77;;;;;;;10.95;100.00;96315.00;7394193;19;20742;-76
2023/06/15 00:55:06;;;;;;;8.07;7.00;;;;;;;10.54;100.00;96339.69;7394773;19;20424;-75
2023/06/15 00:57:35;;;;;;;8.17;7.40;;;;;;;10.45;100.00;96345.06;7395405;19;20714;-76
2023/06/15 01:00:09;;;;;;;8.17;7.57;;;;;;;10.41;100.00;96349.44;7395027;19;20405;-75
2023/06/15 01:02:38;;;;;;;8.17;7.50;;;;;;;10.32;100.00;96324.97;7395575;19;20377;-75
2023/06/15 01:05:05;;;;;;;7.93;7.30;;;;;;;10.81;100.00;96351.56;7395599;19;20437;-75
2023/06/15 01:07:35;;;;;;;7.50;6.90;;;;;;;10.64;100.00;96313.63;7394708;19;20380;-75
2023/06/15 01:10:03;;;;;;;8.03;7.23;;;;;;;10.68;100.00;96328.84;7396327;19;20414;-75
2023/06/15 01:12:31;;;;;;;8.40;7.70;;;;;;;10.55;100.00;96330.66;7394136;19;20388;-76
2023/06/15 01:14:57;;;;;;;7.40;6.77;;;;;;;10.02;100.00;96303.13;7396216;19;20775;-75
2023/06/15 01:17:25;;;;;;;8.50;7.80;;;;;;;10.54;100.00;96358.97;7394593;19;20368;-75
2023/06/15 01:20:03;;;;;;;8.83;8.10;;;;;;;10.01;100.00;96331.38;7395184;19;20384;-75
2023/06/15 01:22:49;;;;;;;8.13;7.53;;;;;;;10.53;100.00;96356.66;7394369;19;20718;-75
2023/06/15 01:25:29;;;;;;;9.63;7.80;;;;;;;10.22;100.00;96343.84;7391833;19;20417;-75
2023/06/15 01:27:58;;;;;;;7.90;7.30;;;;;;;10.07;100.00;96340.69;7398694;19;20376;-75
2023/06/15 01:30:27;;;;;;;10.10;7.87;;;;;;;10.04;100.00;96322.84;7401473;19;20707;-75
2023/06/15 01:32:54;;;;;;;9.13;8.33;;;;;;;9.99;100.00;96325.66;7403795;19;20404;-75
2023/06/15 01:35:21;;;;;;;10.57;8.93;;;;;;;10.05;100.00;96313.81;7399311;19;20452;-75
2023/06/15 01:37:48;;;;;;;10.00;9.10;;;;;;;10.33;100.00;96347.66;7403502;19;20384;-75
2023/06/15 01:40:16;;;;;;;8.87;8.00;;;;;;;10.33;100.00;96318.59;7400282;19;20349;-75
2023/06/15 01:42:44;;;;;;;9.87;7.97;;;;;;;10.49;100.00;96340.69;7403326;19;20368;-75
2023/06/15 01:45:14;;;;;;;8.60;7.80;;;;;;;10.25;100.00;96306.22;7399370;19;20786;-75
2023/06/15 01:47:43;;;;;;;9.77;8.07;;;;;;;10.46;100.00;96337.91;7400314;19;20384;-75
2023/06/15 01:50:11;;;;;;;8.33;7.63;;;;;;;10.56;100.00;96325.06;7401918;19;20390;-75
2023/06/15 01:52:40;;;;;;;8.50;7.63;;;;;;;10.02;100.00;96303.13;7399989;19;20413;-75
2023/06/15 01:55:08;;;;;;;9.67;8.77;;;;;;;9.97;100.00;96333.13;7400049;19;20452;-75
2023/06/15 01:57:39;;;;;;;8.73;7.53;;;;;;;9.43;100.00;96293.41;7400503;19;20396;-75
2023/06/15 02:00:10;;;;;;;9.40;8.50;;;;;;;9.68;100.00;96331.28;7401166;19;20376;-75
2023/06/15 02:02:40;;;;;;;9.13;7.80;;;;;;;9.63;100.00;96301.69;7401465;19;20385;-75
2023/06/15 02:05:09;;;;;;;9.43;8.23;;;;;;;9.64;100.00;96325.13;7396554;19;20424;-75
2023/06/15 02:07:36;;;;;;;11.40;8.07;;;;;;;9.61;100.00;96298.56;7400607;19;20739;-75
2023/06/15 02:10:05;;;;;;;11.03;8.20;;;;;;;9.95;100.00;96316.06;7402255;19;20744;-75
2023/06/15 02:12:32;;;;;;;10.90;8.27;;;;;;;10.16;100.00;96330.06;7400137;19;20391;-75
2023/06/15 02:15:03;;;;;;;8.00;7.23;;;;;;;10.06;100.00;96335.72;7399142;19;20797;-76
2023/06/15 02:17:38;;;;;;;15.30;8.50;;;;;;;9.61;100.00;96303.84;7407344;19;20451;-76
2023/06/15 02:20:09;;;;;;;10.80;8.27;;;;;;;9.72;100.00;96315.59;7406574;19;20376;-75
2023/06/15 02:22:36;;;;;;;9.87;8.80;;;;;;;9.35;100.00;96310.06;7403041;19;20422;-75
2023/06/15 02:25:04;;;;;;;11.83;9.00;;;;;;;9.02;100.00;96327.56;7397311;19;20440;-75
2023/06/15 02:27:32;;;;;;;13.10;8.43;;;;;;;8.94;100.00;96336.28;7401293;19;20385;-75
2023/06/15 02:30:00;;;;;;;13.33;8.00;;;;;;;8.94;100.00;96297.50;7397392;19;20385;-75
2023/06/15 02:32:34;;;;;;;8.67;7.87;;;;;;;9.46;100.00;96342.91;7400265;19;20827;-75
2023/06/15 02:35:09;;;;;;;14.47;9.60;;;;;;;9.43;100.00;96311.09;7397442;19;20424;-75
2023/06/15 02:37:38;;;;;;;8.57;7.87;;;;;;;9.77;100.00;96341.81;7400460;19;20884;-75
2023/06/15 02:40:06;;;;;;;10.90;8.10;;;;;;;9.30;100.00;96312.88;7397093;19;20393;-75
2023/06/15 02:42:35;;;;;;;8.40;7.60;;;;;;;9.11;100.00;96305.34;7401500;19;20397;-75
2023/06/15 02:45:03;;;;;;;8.97;8.20;;;;;;;9.45;100.00;96319.47;7397656;19;20943;-75
2023/06/15 02:47:30;;;;;;;8.80;7.90;;;;;;;8.89;100.00;96316.13;7400334;19;20405;-75
2023/06/15 02:49:59;;;;;;;7.83;7.13;;;;;;;8.83;100.00;96347.19;7399595;19;20368;-75
2023/06/15 02:52:31;;;;;;;11.20;9.23;;;;;;;8.63;100.00;96312.78;7397241;19;20398;-75
2023/06/15 02:55:00;;;;;;;9.60;8.43;;;;;;;8.69;100.00;96301.78;7397205;19;20428;-75
2023/06/15 02:57:27;;;;;;;11.40;9.20;;;;;;;8.37;100.00;96287.25;7398368;19;20384;-75
2023/06/15 03:00:13;;;;;;;12.43;8.90;;;;;;;8.67;100.00;96318.97;7399377;19;20374;-75
2023/06/15 03:02:47;;;;;;;11.27;8.93;;;;;;;8.85;100.00;96325.75;7398399;19;20364;-74
2023/06/15 03:05:18;;;;;;;15.10;9.10;;;;;;;8.28;100.00;96275.94;7397665;19;21027;-75
2023/06/15 03:07:52;;;;;;;21.63;13.43;;;;;;;8.39;100.00;96321.97;7399352;19;20925;-75
2023/06/15 03:10:30;;;;;;;13.80;10.57;;;;;;;8.42;100.00;96315.31;7397045;19;20960;-75
2023/06/15 03:12:58;;;;;;;15.43;11.20;;;;;;;8.69;100.00;96343.94;7398879;19;21003;-75
2023/06/15 03:15:25;;;;;;;9.53;8.53;;;;;;;8.69;100.00;96338.69;7395696;19;20429;-75
2023/06/15 03:17:54;;;;;;;9.73;8.73;;;;;;;8.61;100.00;96310.47;7398729;19;20484;-74
2023/06/15 03:20:24;;;;;;;9.90;8.93;;;;;;;8.81;100.00;96359.09;7397361;19;20906;-75
2023/06/15 03:22:53;;;;;;;11.07;9.97;;;;;;;8.54;100.00;96326.75;7399201;19;20451;-75
2023/06/15 03:25:21;;;;;;;10.07;9.10;;;;;;;8.81;100.00;96354.63;7396012;19;20420;-75
2023/06/15 03:27:52;;;;;;;10.17;9.33;;;;;;;8.88;100.00;96362.81;7399949;19;20417;-74
2023/06/15 03:30:20;;;;;;;12.33;9.90;;;;;;;8.69;100.00;96351.09;7397383;19;20376;-75
2023/06/15 03:32:47;;;;;;;13.47;7.83;;;;;;;8.92;100.00;96359.53;7396053;19;20421;-75
2023/06/15 03:35:14;;;;;;;9.33;8.50;;;;;;;8.76;100.00;96351.38;7397052;19;20409;-75
2023/06/15 03:37:42;;;;;;;12.87;9.20;;;;;;;8.64;100.00;96314.34;7398480;19;20918;-75
2023/06/15 03:40:10;;;;;;;8.27;7.57;;;;;;;9.02;100.00;96352.06;7397095;19;20401;-75
2023/06/15 03:42:38;;;;;;;8.43;7.07;;;;;;;8.64;100.00;96341.47;7395721;19;20368;-74
2023/06/15 03:45:06;;;;;;;13.10;8.67;;;;;;;8.64;100.00;96354.63;7396214;19;20452;-75
2023/06/15 03:47:33;;;;;;;10.57;9.57;;;;;;;8.17;100.00;96330.00;7398549;19;20407;-75
2023/06/15 03:50:01;;;;;;;9.83;8.90;;;;;;;7.91;100.00;96301.81;7397074;19;20397;-75
2023/06/15 03:52:32;;;;;;;13.00;7.63;;;;;;;8.65;100.00;96358.81;7396010;19;20740;-75
2023/06/15 03:55:00;;;;;;;8.50;7.80;;;;;;;8.62;100.00;96338.38;7408498;19;20413;-75
2023/06/15 03:57:28;;;;;;;8.70;7.90;;;;;;;8.91;100.00;96366.69;7408107;19;20892;-75
2023/06/15 03:59:55;;;;;;;7.80;7.10;;;;;;;8.85;100.00;96326.53;7397449;19;20398;-75
2023/06/15 04:02:22;;;;;;;10.23;8.80;;;;;;;9.12;100.00;96351.75;7394212;19;20371;-75
2023/06/15 04:04:52;;;;;;;9.07;8.37;;;;;;;9.07;100.00;96340.56;7395586;19;20433;-75
2023/06/15 04:07:20;;;;;;;9.23;8.43;;;;;;;9.21;100.00;96340.38;7395548;19;20396;-75
2023/06/15 04:09:48;;;;;;;11.23;8.57;;;;;;;9.43;100.00;96356.72;7397307;19;20396;-75
2023/06/15 04:12:15;;;;;;;9.93;8.60;;;;;;;9.34;100.00;96363.91;7395648;19;20409;-75
2023/06/15 04:14:42;;;;;;;9.30;8.60;;;;;;;9.11;100.00;96350.19;7395379;19;20428;-75
2023/06/15 04:17:13;;;;;;;9.27;8.47;;;;;;;9.32;100.00;96338.94;7395912;19;20400;-75
2023/06/15 04:19:40;;;;;;;9.40;8.60;;;;;;;9.53;100.00;96378.59;7396861;19;20404;-75
2023/06/15 04:22:07;;;;;;;10.60;7.90;;;;;;;9.27;100.00;96376.81;7395067;19;20463;-75
2023/06/15 04:24:34;;;;;;;9.53;7.70;;;;;;;9.75;100.00;96376.47;7398402;19;20428;-75
2023/06/15 04:27:02;;;;;;;10.10;9.30;;;;;;;9.88;100.00;96364.13;7396744;19;20407;-75
2023/06/15 04:29:30;;;;;;;9.83;8.93;;;;;;;10.17;100.00;96381.03;7398576;19;20972;-75
2023/06/15 04:31:58;;;;;;;8.97;8.27;;;;;;;10.21;100.00;96363.44;7395696;19;20373;-75
2023/06/15 04:34:30;;;;;;;8.60;7.77;;;;;;;9.97;100.00;96335.00;7396665;19;20782;-75
2023/06/15 04:36:59;;;;;;;10.00;9.20;;;;;;;9.76;100.00;96383.28;7397725;19;20381;-74
2023/06/15 04:39:26;;;;;;;10.20;9.30;;;;;;;9.78;100.00;96359.19;7397058;19;20388;-75
2023/06/15 04:41:57;;;;;;;10.37;9.47;;;;;;;10.02;100.00;96348.81;7394234;19;20376;-75
2023/06/15 04:44:25;;;;;;;9.60;8.70;;;;;;;10.49;100.00;96364.47;7393184;19;20465;-75
2023/06/15 04:46:52;;;;;;;8.97;8.27;;;;;;;10.58;100.00;96381.03;7395799;19;20479;-75
2023/06/15 04:49:19;;;;;;;10.43;9.43;;;;;;;10.25;100.00;96367.75;7393606;19;20368;-75
2023/06/15 04:51:48;;;;;;;9.83;8.60;;;;;;;10.05;100.00;96379.09;7395642;19;20384;-75
2023/06/15 04:54:15;;;;;;;10.33;9.30;;;;;;;10.37;100.00;96367.06;7393573;19;20452;-75
2023/06/15 04:56:43;;;;;;;10.70;9.70;;;;;;;10.95;100.00;96375.84;7395110;19;20376;-75
2023/06/15 04:59:09;;;;;;;9.10;8.23;;;;;;;11.12;100.00;96386.28;7394259;19;20408;-75
2023/06/15 05:01:37;;;;;;;10.03;9.03;;;;;;;11.16;100.00;96407.56;7395390;19;20891;-75
2023/06/15 05:04:10;;;;;;;8.57;7.80;;;;;;;11.37;100.00;96387.09;7407163;19;20767;-75
2023/06/15 05:06:36;;;;;;;8.70;7.80;;;;;;;11.54;100.00;96396.72;7410878;19;20384;-75
2023/06/15 05:09:03;;;;;;;9.20;8.50;;;;;;;11.20;100.00;96406.56;7409006;19;20452;-75
2023/06/15 05:11:30;;;;;;;9.30;7.87;;;;;;;10.92;100.00;96406.38;7410597;19;20396;-75
2023/06/15 05:13:57;;;;;;;9.70;8.90;;;;;;;10.98;100.00;96383.16;7409408;19;20499;-76
2023/06/15 05:16:25;;;;;;;10.07;9.17;;;;;;;11.07;100.00;96397.06;7411283;19;20732;-75
2023/06/15 05:18:52;;;;;;;9.10;8.37;;;;;;;11.42;100.00;96394.03;7410289;19;20388;-75
2023/06/15 05:21:20;;;;;;;9.23;8.43;;;;;;;11.77;100.00;96392.53;7411972;19;20463;-75
2023/06/15 05:23:47;;;;;;;9.93;8.93;;;;;;;12.28;100.00;96411.47;7412545;19;20760;-76
2023/06/15 05:26:15;;;;;;;10.20;9.40;;;;;;;12.48;100.00;96404.47;7411145;19;20409;-76
2023/06/15 05:28:45;;;;;;;10.23;9.27;;;;;;;12.13;100.00;96404.97;7413609;19;20368;-75
2023/06/15 05:31:13;;;;;;;9.37;8.33;;;;;;;12.11;100.00;96403.78;7426091;19;20456;-76
2023/06/15 05:33:40;;;;;;;8.80;8.00;;;;;;;12.52;100.00;96404.56;7432060;19;20463;-76
2023/06/15 05:36:07;;;;;;;12.90;9.10;;;;;;;12.85;100.00;96420.28;7418781;19;20384;-75
2023/06/15 05:38:55;;;;;;;9.90;8.90;;;;;;;12.86;100.00;96400.59;7413955;19;20393;-76
2023/06/15 05:41:22;;;;;;;11.03;9.97;;;;;;;12.99;100.00;96425.97;7411472;19;20987;-75
2023/06/15 05:43:49;;;;;;;9.60;8.80;;;;;;;12.99;100.00;96410.81;7409481;19;20415;-75
2023/06/15 05:46:17;;;;;;;9.23;8.37;;;;;;;13.29;100.00;96421.06;7408200;19;20392;-75
2023/06/15 05:48:44;;;;;;;10.10;9.20;;;;;;;13.39;100.00;96431.19;7409504;19;20400;-75
2023/06/15 05:51:11;;;;;;;9.53;8.73;;;;;;;13.66;100.00;96428.81;7409770;19;20872;-75
2023/06/15 05:53:38;;;;;;;9.67;8.87;;;;;;;13.84;100.00;96422.03;7408146;19;20940;-75
2023/06/15 05:56:06;;;;;;;10.47;9.67;;;;;;;13.55;100.00;96420.59;7407490;19;20372;-75
2023/06/15 05:58:33;;;;;;;16.10;9.70;;;;;;;13.58;100.00;96430.53;7409123;19;20412;-74
2023/06/15 06:01:00;;;;;;;9.43;8.53;;;;;;;13.95;100.00;96454.94;7406777;19;20994;-74
2023/06/15 06:03:27;;;;;;;11.30;9.57;;;;;;;14.12;100.00;96425.34;7408321;19;20400;-75
2023/06/15 06:05:54;;;;;;;9.80;9.00;;;;;;;14.42;100.00;96419.50;7408492;19;20372;-75
2023/06/15 06:08:23;;;;;;;15.03;9.00;;;;;;;14.42;100.00;96427.47;7408317;19;20889;-75
2023/06/15 06:10:50;;;;;;;10.50;9.40;;;;;;;14.61;100.00;96435.53;7407031;19;20371;-75
2023/06/15 06:13:36;;;;;;;9.80;8.90;;;;;;;15.43;100.00;96446.97;7404063;19;20376;-74
2023/06/15 06:16:03;;;;;;;11.70;10.23;;;;;;;15.52;100.00;96460.84;7400720;19;20368;-74
2023/06/15 06:18:30;;;;;;;9.40;8.60;;;;;;;15.85;100.00;96439.69;7399208;19;20443;-74
2023/06/15 06:20:57;;;;;;;10.37;8.87;;;;;;;15.83;100.00;96428.63;7400308;19;20456;-74
2023/06/15 06:23:25;;;;;;;9.50;8.70;;;;;;;15.43;100.00;96461.06;7398901;19;20425;-74
2023/06/15 06:25:53;;;;;;;8.27;7.47;;;;;;;15.79;100.00;96446.47;7400160;19;20385;-74
2023/06/15 06:28:20;;;;;;;8.63;7.87;;;;;;;15.98;100.00;96461.63;7398933;19;20373;-74
2023/06/15 06:30:47;;;;;;;9.73;8.83;;;;;;;16.11;100.00;96468.31;7405759;19;20348;-74
2023/06/15 06:33:14;;;;;;;9.87;8.97;;;;;;;15.82;100.00;96466.31;7411710;19;20384;-74
2023/06/15 06:35:41;;;;;;;9.57;8.63;;;;;;;15.34;100.00;96442.63;7405177;19;20437;-74
2023/06/15 06:38:08;;;;;;;9.87;8.90;;;;;;;15.67;100.00;96438.66;7398945;19;20382;-73
2023/06/15 06:40:35;;;;;;;9.00;8.30;;;;;;;15.06;100.00;96452.75;7400356;19;20429;-73
2023/06/15 06:43:03;;;;;;;9.07;8.37;;;;;;;15.84;100.00;96448.84;7396566;19;20361;-73
2023/06/15 06:45:30;;;;;;;9.37;8.47;;;;;;;15.71;100.00;96439.47;7398245;19;20433;-73
2023/06/15 06:47:56;;;;;;;9.10;8.30;;;;;;;15.87;100.00;96466.00;7400101;19;20369;-73
2023/06/15 06:50:24;;;;;;;8.53;7.83;;;;;;;16.59;100.00;96449.16;7401774;19;20354;-73
2023/06/15 06:52:51;;;;;;;8.70;8.00;;;;;;;16.13;100.00;96420.69;7400150;19;20357;-73
2023/06/15 06:55:18;;;;;;;9.60;8.70;;;;;;;16.90;100.00;96438.13;7397873;19;20440;-73
2023/06/15 06:57:45;;;;;;;8.27;7.47;;;;;;;17.42;100.00;96449.75;7398702;19;20369;-74
2023/06/15 07:00:13;;;;;;;9.17;7.50;;;;;;;17.83;100.00;96471.94;7400006;19;20369;-74
2023/06/15 07:02:40;;;;;;;8.53;7.83;;;;;;;18.37;100.00;96470.41;7397119;19;20410;-74
2023/06/15 07:05:07;;;;;;;9.10;7.00;;;;;;;18.58;99.12;96475.13;7420787;19;20428;-74
2023/06/15 07:07:34;;;;;;;8.17;7.43;;;;;;;18.74;99.38;96483.66;7429305;19;20371;-73
2023/06/15 07:10:02;;;;;;;9.57;8.57;;;;;;;18.80;95.81;96484.06;7430759;19;20408;-75
2023/06/15 07:12:31;;;;;;;7.93;7.33;;;;;;;18.27;94.25;96479.91;7427264;19;20391;-73
2023/06/15 07:14:59;;;;;;;8.00;7.30;;;;;;;18.20;95.94;96425.56;7414156;19;20439;-74
2023/06/15 07:17:26;;;;;;;7.87;7.13;;;;;;;18.57;92.53;96476.28;7400053;19;20349;-74
2023/06/15 07:19:58;;;;;;;8.50;7.90;;;;;;;18.11;91.70;96471.38;7400248;19;20729;-74
2023/06/15 07:22:25;;;;;;;7.47;6.87;;;;;;;18.35;91.25;96471.94;7398403;19;20889;-74
2023/06/15 07:24:52;;;;;;;8.70;7.03;;;;;;;18.48;89.61;96476.59;7397414;19;20980;-74
2023/06/15 07:27:19;;;;;;;8.77;6.73;;;;;;;18.63;88.07;96468.66;7397582;19;20914;-74
2023/06/15 07:29:46;;;;;;;8.73;7.93;;;;;;;18.29;88.30;96437.47;7400463;19;20414;-75
2023/06/15 07:32:13;;;;;;;9.23;7.20;;;;;;;18.72;89.47;96445.00;7398495;19;20396;-74
2023/06/15 07:34:40;;;;;;;8.30;7.70;;;;;;;19.13;86.49;96472.34;7399011;19;20448;-74
2023/06/15 07:37:07;;;;;;;7.40;6.90;;;;;;;19.11;84.50;96456.66;7398189;19;20343;-73
2023/06/15 07:39:36;;;;;;;8.93;8.20;;;;;;;18.71;84.89;96449.59;7396207;19;20396;-73
2023/06/15 07:42:04;;;;;;;7.33;6.73;;;;;;;18.48;86.49;96446.38;7397071;19;20938;-74
2023/06/15 07:44:31;;;;;;;8.77;7.23;;;;;;;18.90;86.88;96446.59;7395405;19;20463;-74
2023/06/15 07:46:58;;;;;;;8.57;7.77;;;;;;;18.81;86.36;96440.06;7398140;19;20410;-74
2023/06/15 07:49:25;;;;;;;8.03;7.27;;;;;;;19.19;83.56;96465.47;7396506;19;20414;-74
2023/06/15 07:52:10;;;;;;;7.90;7.30;;;;;;;20.15;81.22;96470.97;7399053;19;20482;-74
2023/06/15 07:54:37;;;;;;;7.70;7.07;;;;;;;18.60;83.41;96449.50;7396280;19;20423;-74
2023/06/15 07:57:04;;;;;;;9.40;7.00;;;;;;;18.16;84.54;96446.16;7398119;19;20391;-74
2023/06/15 07:59:31;;;;;;;7.77;7.00;;;;;;;18.43;84.01;96444.84;7397549;19;20418;-73
2023/06/15 08:01:58;;;;;;;7.67;6.97;;;;;;;19.25;81.06;96463.19;7397393;19;20719;-73
2023/06/15 08:04:25;;;;;;;8.10;7.30;;;;;;;19.08;83.63;96452.03;7396070;19;20417;-74
2023/06/15 08:06:52;;;;;;;6.30;5.80;;;;;;;18.87;76.23;96425.94;7399724;19;20930;-74
2023/06/15 08:09:19;;;;;;;5.80;5.40;;;;;;;19.69;76.21;96436.84;7397932;19;20406;-74
2023/06/15 08:11:47;;;;;;;4.50;4.10;;;;;;;19.59;71.07;96432.25;7400594;19;20345;-74
2023/06/15 08:14:14;;;;;;;5.00;4.60;;;;;;;19.46;71.08;96449.81;7396494;19;20427;-74
2023/06/15 08:16:41;;;;;;;5.43;5.03;;;;;;;19.66;71.15;96450.28;7399235;19;20934;-74
2023/06/15 08:19:08;;;;;;;5.40;4.90;;;;;;;20.11;70.70;96437.22;7398213;19;20406;-74
2023/06/15 08:21:35;;;;;;;5.07;4.67;;;;;;;20.37;68.61;96456.38;7397454;19;20367;-74
2023/06/15 08:24:02;;;;;;;4.77;4.37;;;;;;;20.08;67.88;96442.22;7395612;19;20413;-74
2023/06/15 08:26:30;;;;;;;4.40;4.10;;;;;;;19.46;68.49;96442.53;7398998;19;20385;-74
2023/06/15 08:28:57;;;;;;;5.00;4.03;;;;;;;18.95;68.60;96434.75;7396504;19;20378;-74
2023/06/15 08:31:44;;;;;;;5.83;4.20;;;;;;;19.22;69.17;96407.63;7395727;19;20413;-74
2023/06/15 08:34:11;;;;;;;4.47;4.17;;;;;;;18.89;69.45;96452.34;7396126;19;20402;-74
2023/06/15 08:36:38;;;;;;;4.90;4.53;;;;;;;19.26;69.71;96451.34;7394460;19;20390;-74
2023/06/15 08:39:05;;;;;;;4.67;4.17;;;;;;;19.87;69.99;96452.19;7395749;19;20395;-74
2023/06/15 08:41:36;;;;;;;5.23;4.70;;;;;;;20.29;68.96;96422.63;7394767;19;20405;-74
2023/06/15 08:44:05;;;;;;;5.00;4.53;;;;;;;19.50;67.05;96455.97;7396347;19;20530;-74
2023/06/15 08:46:32;;;;;;;5.40;5.00;;;;;;;19.44;67.09;96439.47;7395762;19;20381;-74
2023/06/15 08:49:00;;;;;;;4.70;4.30;;;;;;;19.25;67.97;96441.75;7398524;19;21009;-74
2023/06/15 08:51:27;;;;;;;5.07;4.67;;;;;;;20.00;67.23;96421.91;7395742;19;20898;-77
2023/06/15 08:53:57;;;;;;;5.13;4.63;;;;;;;20.59;66.01;96416.84;7397723;19;20425;-77
2023/06/15 08:56:24;;;;;;;5.60;5.10;;;;;;;21.24;64.51;96454.97;7398990;19;20366;-77
2023/06/15 08:58:51;;;;;;;6.50;4.90;;;;;;;20.96;66.27;96448.53;7397700;19;20752;-77
2023/06/15 09:01:23;;;;;;;5.20;4.80;;;;;;;21.65;65.42;96455.13;7396483;19;20440;-77
2023/06/15 09:03:55;;;;;;;5.00;4.60;;;;;;;22.10;62.54;96453.25;7397583;19;20436;-76
2023/06/15 09:06:28;;;;;;;5.40;4.90;;;;;;;22.59;61.95;96418.91;7421913;19;20386;-76
2023/06/15 09:08:55;;;;;;;4.90;4.43;;;;;;;21.24;61.81;96442.28;7395291;19;20743;-77
2023/06/15 09:11:24;;;;;;;5.03;4.67;;;;;;;21.24;62.97;96441.53;7395935;19;20797;-77
2023/06/15 09:13:51;;;;;;;4.53;4.13;;;;;;;21.99;61.18;96444.47;7394213;19;20450;-76
2023/06/15 09:16:18;;;;;;;4.40;4.10;;;;;;;20.19;63.21;96399.25;7395941;19;20400;-76
2023/06/15 09:18:48;;;;;;;5.07;4.67;;;;;;;20.67;63.74;96425.63;7394051;19;20777;-76
2023/06/15 09:21:17;;;;;;;5.40;5.00;;;;;;;19.99;64.18;96435.72;7397112;19;20344;-77
2023/06/15 09:23:45;;;;;;;4.10;3.80;;;;;;;19.70;65.88;96441.06;7392808;19;20463;-77
2023/06/15 09:26:26;;;;;;;4.07;3.77;;;;;;;20.02;67.27;96435.69;7396949;19;20451;-77
2023/06/15 09:28:57;;;;;;;4.67;4.27;;;;;;;19.69;68.24;96428.81;7396578;19;20381;-77
2023/06/15 09:31:36;;;;;;;4.63;4.20;;;;;;;19.58;66.38;96416.53;7393974;19;20431;-77
2023/06/15 09:34:10;;;;;;;4.33;3.93;;;;;;;19.64;66.20;96418.47;7393323;19;20466;-76
2023/06/15 09:36:50;;;;;;;4.40;4.00;;;;;;;19.82;66.56;96420.38;7397364;19;20371;-76
2023/06/15 09:39:25;;;;;;;4.37;3.97;;;;;;;19.64;66.06;96429.19;7398003;19;20363;-77
2023/06/15 09:41:53;;;;;;;4.07;3.77;;;;;;;19.76;67.24;96426.16;7428657;19;20371;-78
2023/06/15 09:44:22;;;;;;;4.50;4.10;;;;;;;19.61;67.95;96413.84;7425912;19;20464;-77
2023/06/15 09:46:51;;;;;;;3.73;3.43;;;;;;;20.00;67.23;96429.94;7393949;19;20357;-77
2023/06/15 09:49:27;;;;;;;4.10;3.80;;;;;;;20.92;64.65;96409.41;7396944;19;20373;-77
2023/06/15 09:51:55;;;;;;;6.47;3.73;;;;;;;20.70;64.16;96399.88;7404489;19;20346;-77
2023/06/15 09:54:26;;;;;;;4.73;4.27;;;;;;;20.86;63.46;96419.81;7399855;19;20452;-77
2023/06/15 09:56:53;;;;;;;3.23;3.03;;;;;;;20.41;65.33;96418.00;7400989;19;20346;-77
2023/06/15 09:59:21;;;;;;;3.80;3.50;;;;;;;20.57;64.91;96423.75;7400753;19;20481;-77
2023/06/15 10:01:50;;;;;;;4.47;4.07;;;;;;;20.61;62.12;96432.56;7402073;19;20419;-77
2023/06/15 10:04:23;;;;;;;4.20;3.80;;;;;;;20.69;63.48;96423.31;7398098;19;20431;-77
2023/06/15 10:06:56;;;;;;;4.30;3.60;;;;;;;20.81;61.73;96416.75;7402922;19;20372;-77
2023/06/15 10:09:28;;;;;;;3.20;3.00;;;;;;;20.71;61.36;96399.53;7400970;19;20938;-77
2023/06/15 10:12:01;;;;;;;3.87;3.47;;;;;;;21.32;61.20;96420.75;7404322;19;20864;-77
2023/06/15 10:14:34;;;;;;;5.50;4.03;;;;;;;21.56;60.54;96411.75;7400322;19;20392;-77
2023/06/15 10:17:03;;;;;;;3.80;3.50;;;;;;;21.81;60.70;96417.69;7400178;19;20484;-77
2023/06/15 10:19:38;;;;;;;3.53;3.23;;;;;;;21.75;60.58;96386.22;7403223;19;20403;-77
2023/06/15 10:22:10;;;;;;;5.80;3.97;;;;;;;21.13;60.77;96416.59;7400742;19;20385;-77
2023/06/15 10:24:38;;;;;;;4.63;4.20;;;;;;;19.94;62.31;96407.34;7401792;19;20422;-77
2023/06/15 10:27:06;;;;;;;4.50;4.10;;;;;;;20.24;63.11;96411.50;7401610;19;20358;-77
2023/06/15 10:29:43;;;;;;;3.93;3.63;;;;;;;19.45;64.46;96390.06;7403000;19;20348;-77
2023/06/15 10:32:36;;;;;;;3.97;3.60;;;;;;;19.24;65.41;96384.69;7400488;19;20877;-77
2023/06/15 10:35:33;;;;;;;5.03;4.60;;;;;;;19.35;65.49;96390.03;7397680;19;20406;-77
2023/06/15 10:38:19;;;;;;;4.30;3.90;;;;;;;19.35;67.15;96416.84;7399015;19;20728;-77
2023/06/15 10:40:48;;;;;;;4.40;4.10;;;;;;;19.19;67.86;96414.53;7401352;19;20403;-77
2023/06/15 10:43:18;;;;;;;3.80;3.40;;;;;;;19.19;68.03;96401.13;7398491;19;21313;-77
2023/06/15 10:45:46;;;;;;;3.97;3.73;;;;;;;19.61;67.93;96413.84;7401782;19;20381;-77
2023/06/15 10:48:21;;;;;;;8.53;4.00;;;;;;;19.17;67.88;96417.59;7401531;19;20433;-77
2023/06/15 10:50:50;;;;;;;4.70;3.40;;;;;;;19.49;67.24;96411.50;7401537;19;20407;-77
2023/06/15 10:53:25;;;;;;;4.20;3.90;;;;;;;19.31;69.46;96410.72;7400048;19;20375;-77
2023/06/15 10:55:58;;;;;;;4.70;3.93;;;;;;;19.34;69.18;96410.72;7399955;19;20355;-77
2023/06/15 10:58:27;;;;;;;3.80;3.50;;;;;;;19.30;69.01;96414.56;7400544;19;20383;-77
2023/06/15 11:01:11;;;;;;;4.67;4.23;;;;;;;19.42;70.23;96409.59;7396502;19;20879;-77
2023/06/15 11:03:41;;;;;;;4.27;3.87;;;;;;;19.23;70.55;96390.41;7400428;19;20450;-77
2023/06/15 11:06:20;;;;;;;5.27;4.77;;;;;;;19.07;70.31;96380.81;7399112;19;20399;-77
2023/06/15 11:08:52;;;;;;;5.53;4.30;;;;;;;19.31;71.85;96408.81;7397699;19;20391;-77
2023/06/15 11:11:29;;;;;;;5.40;5.00;;;;;;;19.42;71.50;96414.19;7401059;19;20375;-77
2023/06/15 11:13:59;;;;;;;4.67;4.27;;;;;;;19.73;71.33;96405.41;7397676;19;20409;-77
2023/06/15 11:16:30;;;;;;;4.33;4.03;;;;;;;20.02;69.78;96408.09;7399965;19;20424;-77
2023/06/15 11:19:10;;;;;;;5.00;4.30;;;;;;;20.46;70.61;96396.16;7398088;19;20914;-77
2023/06/15 11:21:40;;;;;;;4.70;4.30;;;;;;;21.12;66.55;96415.84;7401966;19;20387;-77
2023/06/15 11:24:07;;;;;;;4.57;4.20;;;;;;;21.20;66.01;96411.16;7397190;19;20436;-77
2023/06/15 11:26:39;;;;;;;5.27;3.90;;;;;;;21.15;66.32;96406.22;7399099;19;20909;-77
2023/06/15 11:29:08;;;;;;;4.70;4.30;;;;;;;21.27;65.18;96413.84;7398972;19;20343;-77
2023/06/15 11:31:36;;;;;;;4.40;4.10;;;;;;;21.34;63.71;96402.28;7397030;19;20955;-77
2023/06/15 11:34:03;;;;;;;4.70;4.30;;;;;;;22.24;59.88;96403.13;7400043;19;20408;-77
2023/06/15 11:36:30;;;;;;;7.43;4.77;;;;;;;22.00;61.50;96413.69;7397049;19;20371;-77
2023/06/15 11:38:56;;;;;;;3.60;3.30;;;;;;;22.33;59.87;96398.78;7398590;19;20690;-77